createdAt,value
2019-05-05T00:02:24.851Z,0.68
2019-05-05T00:05:01.625Z,0.20
2019-05-05T00:07:34.834Z,0.80
2019-05-05T00:10:06.506Z,0.28
2019-05-05T00:12:59.275Z,1.15
2019-05-05T00:15:55.218Z,0.10
2019-05-05T00:18:28.735Z,0.20
2019-05-05T00:20:59.068Z,0.42
2019-05-05T00:23:29.367Z,0.23
2019-05-05T00:25:59.709Z,0.30
2019-05-05T00:28:30.006Z,0.30
2019-05-05T00:31:01.191Z,0.42
2019-05-05T00:33:31.680Z,0.60
2019-05-05T00:36:04.785Z,0.40
2019-05-05T00:38:35.239Z,0.17
2019-05-05T00:41:05.762Z,0.10
2019-05-05T00:43:36.086Z,0.20
2019-05-05T00:46:12.776Z,0.72
2019-05-05T00:48:45.603Z,0.10
2019-05-05T00:51:16.022Z,0.10
2019-05-05T00:53:46.401Z,0.20
2019-05-05T00:56:16.696Z,0.23
2019-05-05T00:58:52.827Z,0.30
2019-05-05T01:01:42.123Z,0.30
2019-05-05T01:04:15.580Z,0.10
2019-05-05T01:06:46.964Z,0.15
2019-05-05T01:09:19.374Z,2.20
2019-05-05T01:11:49.681Z,0.47
2019-05-05T01:14:20.145Z,0.42
2019-05-05T01:16:50.443Z,0.10
2019-05-05T01:19:20.773Z,0.25
2019-05-05T01:21:51.362Z,0.10
2019-05-05T01:24:21.672Z,0.10
2019-05-05T01:26:52.012Z,0.10
2019-05-05T01:29:25.126Z,0.10
2019-05-05T01:31:56.848Z,0.10
2019-05-05T01:34:31.614Z,0.10
2019-05-05T01:37:11.454Z,0.30
2019-05-05T01:39:49.804Z,0.60
2019-05-05T01:42:20.195Z,0.40
2019-05-05T01:44:50.492Z,0.23
2019-05-05T01:47:20.790Z,0.30
2019-05-05T01:49:51.154Z,0.30
2019-05-05T01:52:21.434Z,0.15
2019-05-05T01:54:51.778Z,0.20
2019-05-05T01:57:22.262Z,0.10
2019-05-05T01:59:52.657Z,0.10
2019-05-05T02:02:24.937Z,0.23
2019-05-05T02:04:55.430Z,0.33
2019-05-05T02:07:26.077Z,1.05
2019-05-05T02:09:56.472Z,1.70
2019-05-05T02:12:27.058Z,2.55
2019-05-05T02:14:57.428Z,0.95
2019-05-05T02:17:27.754Z,1.98
2019-05-05T02:19:58.087Z,0.95
2019-05-05T02:22:28.360Z,0.40
2019-05-05T02:24:58.683Z,0.40
2019-05-05T02:27:29.211Z,0.35
2019-05-05T02:30:15.961Z,0.70
2019-05-05T02:32:48.240Z,0.20
2019-05-05T02:35:18.594Z,0.60
2019-05-05T02:37:48.894Z,0.57
2019-05-05T02:40:19.337Z,0.37
2019-05-05T02:42:50.374Z,0.60
2019-05-05T02:45:48.282Z,1.25
2019-05-05T02:48:21.431Z,1.02
2019-05-05T02:51:01.177Z,0.68
2019-05-05T02:53:34.123Z,1.02
2019-05-05T02:56:08.295Z,1.42
2019-05-05T02:58:40.162Z,1.25
2019-05-05T03:01:30.176Z,1.42
2019-05-05T03:04:03.770Z,0.72
2019-05-05T03:06:34.354Z,0.93
2019-05-05T03:09:06.599Z,1.35
2019-05-05T03:11:39.119Z,1.98
2019-05-05T03:14:14.214Z,2.87
2019-05-05T03:16:44.896Z,1.95
2019-05-05T03:19:15.250Z,2.08
2019-05-05T03:21:46.212Z,2.15
2019-05-05T03:24:16.838Z,1.75
2019-05-05T03:26:47.575Z,1.82
2019-05-05T03:29:21.155Z,2.80
2019-05-05T03:31:55.966Z,1.87
2019-05-05T03:34:24.981Z,3.08
2019-05-05T03:36:55.310Z,3.22
2019-05-05T03:39:27.655Z,3.40
2019-05-05T03:42:17.574Z,4.42
2019-05-05T03:44:54.487Z,3.30
2019-05-05T03:47:25.627Z,3.10
2019-05-05T03:49:57.250Z,2.47
2019-05-05T03:52:27.660Z,2.83
2019-05-05T03:54:58.010Z,2.10
2019-05-05T03:57:28.420Z,2.45
2019-05-05T03:59:59.652Z,1.77
2019-05-05T04:02:47.440Z,2.10
2019-05-05T04:05:39.806Z,2.40
2019-05-05T04:08:10.979Z,2.47
2019-05-05T04:10:41.329Z,2.83
2019-05-05T04:13:13.802Z,3.17
2019-05-05T04:15:46.057Z,2.47
2019-05-05T04:18:23.724Z,3.45
2019-05-05T04:20:53.769Z,3.17
2019-05-05T04:23:24.593Z,3.27
2019-05-05T04:25:55.060Z,3.85
2019-05-05T04:28:25.411Z,4.45
2019-05-05T04:30:55.720Z,4.55
2019-05-05T04:33:26.052Z,3.62
2019-05-05T04:35:56.399Z,3.00
2019-05-05T04:38:26.704Z,3.30
2019-05-05T04:40:57.063Z,2.95
2019-05-05T04:43:27.421Z,3.52
2019-05-05T04:45:57.774Z,2.95
2019-05-05T04:48:35.230Z,2.22
2019-05-05T04:51:14.284Z,3.45
2019-05-05T04:54:03.782Z,1.85
2019-05-05T04:56:34.755Z,2.33
2019-05-05T04:59:05.465Z,2.87
2019-05-05T05:01:36.355Z,3.45
2019-05-05T05:04:16.672Z,3.45
2019-05-05T05:06:54.193Z,3.33
2019-05-05T05:09:25.678Z,4.03
2019-05-05T05:11:56.031Z,3.85
2019-05-05T05:14:26.933Z,5.30
2019-05-05T05:16:59.011Z,4.58
2019-05-05T05:19:29.476Z,5.42
2019-05-05T05:22:02.156Z,3.75
2019-05-05T05:24:34.030Z,4.47
2019-05-05T05:27:05.055Z,6.08
2019-05-05T05:29:35.982Z,6.70
2019-05-05T05:32:06.336Z,6.08
2019-05-05T05:34:36.710Z,4.53
2019-05-05T05:37:07.228Z,3.33
2019-05-05T05:39:52.149Z,3.90
2019-05-05T05:42:24.139Z,3.62
2019-05-05T05:45:05.500Z,2.77
2019-05-05T05:47:54.730Z,3.92
2019-05-05T05:50:29.261Z,2.60
2019-05-05T05:52:59.609Z,2.50
2019-05-05T05:55:29.938Z,2.95
2019-05-05T05:58:00.294Z,2.70
2019-05-05T06:00:30.660Z,2.00
2019-05-05T06:03:00.956Z,2.83
2019-05-05T06:05:31.267Z,2.70
2019-05-05T06:08:01.712Z,2.70
2019-05-05T06:10:33.895Z,2.20
2019-05-05T06:13:04.331Z,2.02
2019-05-05T06:15:35.618Z,2.37
2019-05-05T06:18:05.915Z,3.35
2019-05-05T06:20:36.311Z,1.72
2019-05-05T06:23:06.897Z,2.95
2019-05-05T06:25:44.576Z,3.33
2019-05-05T06:28:14.998Z,4.17
2019-05-05T06:30:45.334Z,4.45
2019-05-05T06:33:15.772Z,2.50
2019-05-05T06:35:46.092Z,3.10
2019-05-05T06:38:16.386Z,3.40
2019-05-05T06:40:53.751Z,3.67
2019-05-05T06:43:44.131Z,2.90
2019-05-05T06:46:17.717Z,2.70
2019-05-05T06:48:47.990Z,2.80
2019-05-05T06:51:18.262Z,2.98
2019-05-05T06:53:48.576Z,3.15
2019-05-05T06:56:18.897Z,2.85
2019-05-05T06:58:49.189Z,3.50
2019-05-05T07:01:19.506Z,2.92
2019-05-05T07:03:49.807Z,3.25
2019-05-05T07:08:56.579Z,2.35
2019-05-05T07:11:27.384Z,2.80
2019-05-05T07:13:58.426Z,2.37
2019-05-05T07:16:28.732Z,2.58
2019-05-05T07:19:01.583Z,2.58
2019-05-05T07:21:34.249Z,1.82
2019-05-05T07:24:04.671Z,2.98
2019-05-05T07:26:35.550Z,4.28
2019-05-05T07:29:06.035Z,3.05
2019-05-05T07:31:36.423Z,1.62
2019-05-05T07:34:07.502Z,1.30
2019-05-05T07:36:49.564Z,1.65
2019-05-05T07:39:20.471Z,2.90
2019-05-05T07:41:54.137Z,1.22
2019-05-05T07:44:29.351Z,1.40
2019-05-05T07:46:57.199Z,2.02
2019-05-05T07:49:28.584Z,1.22
2019-05-05T07:51:58.901Z,1.20
2019-05-05T07:54:29.896Z,1.32
2019-05-05T07:57:00.207Z,1.32
2019-05-05T07:59:31.211Z,1.00
2019-05-05T08:02:04.014Z,1.15
2019-05-05T08:04:34.936Z,1.10
2019-05-05T08:07:11.007Z,1.32
2019-05-05T08:09:41.464Z,4.90
2019-05-05T08:12:13.761Z,4.72
2019-05-05T08:14:44.529Z,3.87
2019-05-05T08:17:44.634Z,4.33
2019-05-05T08:20:19.989Z,1.27
2019-05-05T08:22:50.902Z,1.22
2019-05-05T08:25:37.557Z,1.02
2019-05-05T08:28:36.154Z,1.40
2019-05-05T08:31:33.906Z,0.85
2019-05-05T08:34:04.653Z,0.68
2019-05-05T08:36:34.944Z,1.30
2019-05-05T08:39:09.178Z,1.70
2019-05-05T08:41:39.605Z,1.65
2019-05-05T08:44:09.872Z,0.95
2019-05-05T08:46:40.257Z,1.17
2019-05-05T08:49:10.549Z,1.40
2019-05-05T08:51:40.847Z,0.93
2019-05-05T08:54:11.166Z,0.95
2019-05-05T08:56:41.486Z,1.17
2019-05-05T08:59:14.141Z,1.27
2019-05-05T09:01:44.837Z,1.40
2019-05-05T09:04:15.708Z,1.12
2019-05-05T09:06:46.016Z,1.45
2019-05-05T09:09:16.709Z,1.72
2019-05-05T09:11:47.314Z,1.55
2019-05-05T09:14:17.611Z,1.47
2019-05-05T09:16:47.974Z,1.82
2019-05-05T09:19:20.709Z,1.67
2019-05-05T09:21:50.979Z,2.05
2019-05-05T09:24:35.594Z,1.80
2019-05-05T09:27:28.202Z,1.52
2019-05-05T09:29:57.181Z,1.55
2019-05-05T09:32:27.454Z,2.00
2019-05-05T09:34:57.720Z,1.87
2019-05-05T09:37:28.718Z,1.30
2019-05-05T09:39:59.028Z,0.82
2019-05-05T09:42:29.315Z,1.20
2019-05-05T09:44:59.638Z,0.40
2019-05-05T09:47:29.926Z,0.40
2019-05-05T09:50:00.227Z,1.05
2019-05-05T09:52:30.589Z,0.88
2019-05-05T09:55:00.887Z,1.40
2019-05-05T09:57:31.245Z,1.57
2019-05-05T10:00:11.346Z,1.40
2019-05-05T10:02:43.959Z,1.27
2019-05-05T10:05:14.729Z,1.02
2019-05-05T10:07:45.112Z,0.93
2019-05-05T10:10:15.751Z,1.72
2019-05-05T10:12:46.089Z,1.65
2019-05-05T10:15:16.649Z,1.15
2019-05-05T10:17:46.943Z,1.30
2019-05-05T10:20:17.349Z,1.20
2019-05-05T10:22:47.672Z,1.30
2019-05-05T10:25:35.713Z,0.93
2019-05-05T10:28:06.038Z,1.32
2019-05-05T10:30:36.546Z,1.80
2019-05-05T10:33:06.875Z,5.22
2019-05-05T10:35:37.216Z,6.87
2019-05-05T10:38:07.524Z,6.12
2019-05-05T10:40:37.804Z,2.52
2019-05-05T10:43:08.108Z,13.18
2019-05-05T10:45:38.393Z,18.57
2019-05-05T10:48:08.689Z,17.48
2019-05-05T10:50:39.239Z,0.33
2019-05-05T10:53:09.532Z,2.08
2019-05-05T10:55:39.882Z,0.57
2019-05-05T10:58:10.550Z,0.75
2019-05-05T11:01:03.965Z,0.70
2019-05-05T11:03:34.329Z,0.60
2019-05-05T11:06:04.999Z,0.50
2019-05-05T11:08:35.921Z,0.95
2019-05-05T11:11:06.335Z,0.62
2019-05-05T11:13:36.660Z,0.78
2019-05-05T11:16:06.938Z,1.15
2019-05-05T11:18:37.356Z,0.72
2019-05-05T11:21:07.743Z,0.50
2019-05-05T11:23:38.015Z,0.70
2019-05-05T11:26:08.713Z,1.87
2019-05-05T11:28:39.000Z,2.00
2019-05-05T11:31:09.314Z,0.75
2019-05-05T11:33:56.441Z,1.00
2019-05-05T11:36:51.982Z,1.05
2019-05-05T11:39:25.478Z,1.42
2019-05-05T11:41:56.764Z,1.52
2019-05-05T11:44:28.374Z,1.98
2019-05-05T11:46:59.661Z,1.85
2019-05-05T11:49:33.702Z,1.62
2019-05-05T11:52:06.956Z,0.68
2019-05-05T11:54:38.707Z,0.30
2019-05-05T11:57:13.450Z,0.30
2019-05-05T11:59:45.788Z,0.40
2019-05-05T12:02:20.610Z,0.40
2019-05-05T12:04:54.045Z,0.47
2019-05-05T12:07:25.805Z,0.30
2019-05-05T12:09:57.957Z,0.65
2019-05-05T12:12:30.843Z,1.00
2019-05-05T12:15:01.182Z,1.02
2019-05-05T12:17:36.302Z,0.60
2019-05-05T12:20:10.610Z,0.50
2019-05-05T12:22:40.943Z,0.78
2019-05-05T12:25:29.572Z,0.35
2019-05-05T12:28:18.819Z,0.85
2019-05-05T12:30:49.108Z,0.62
2019-05-05T12:33:19.395Z,0.20
2019-05-05T12:35:49.817Z,0.78
2019-05-05T12:38:20.231Z,0.62
2019-05-05T12:40:50.506Z,1.05
2019-05-05T12:43:20.839Z,1.25
2019-05-05T12:45:57.103Z,1.10
2019-05-05T12:48:32.106Z,0.55
2019-05-05T12:51:04.167Z,0.85
2019-05-05T12:53:34.608Z,0.72
2019-05-05T12:56:04.922Z,1.65
2019-05-05T12:58:35.262Z,1.20
2019-05-05T13:01:10.486Z,1.70
2019-05-05T13:03:40.770Z,1.30
2019-05-05T13:06:11.052Z,1.12
2019-05-05T13:08:41.444Z,1.22
2019-05-05T13:11:11.783Z,2.33
2019-05-05T13:13:43.954Z,2.08
2019-05-05T13:16:14.357Z,1.22
2019-05-05T13:18:44.653Z,1.75
2019-05-05T13:21:27.700Z,1.72
2019-05-05T13:24:16.984Z,1.05
2019-05-05T13:27:09.903Z,0.85
2019-05-05T13:29:38.475Z,1.15
2019-05-05T13:32:08.758Z,0.45
2019-05-05T13:34:39.080Z,1.07
2019-05-05T13:37:09.399Z,0.98
2019-05-05T13:39:39.727Z,1.32
2019-05-05T13:42:10.070Z,0.95
2019-05-05T13:44:57.492Z,0.47
2019-05-05T13:47:27.801Z,0.98
2019-05-05T13:50:05.247Z,0.72
2019-05-05T13:52:35.582Z,0.78
2019-05-05T13:55:06.091Z,0.55
2019-05-05T13:57:36.520Z,0.40
2019-05-05T14:00:09.992Z,0.45
2019-05-05T14:02:40.296Z,0.88
2019-05-05T14:05:10.820Z,0.93
2019-05-05T14:07:43.458Z,1.00
2019-05-05T14:10:14.406Z,1.02
2019-05-05T14:12:45.018Z,1.60
2019-05-05T14:15:18.943Z,1.42
2019-05-05T14:17:49.287Z,1.02
2019-05-05T14:20:19.648Z,1.17
2019-05-05T15:16:29.591Z,0.55
2019-05-05T15:19:00.402Z,1.25
2019-05-05T15:21:31.457Z,1.25
2019-05-05T15:24:01.770Z,0.98
2019-05-05T15:26:34.357Z,0.60
2019-05-05T15:29:04.193Z,1.05
2019-05-05T15:31:34.548Z,1.37
2019-05-05T15:34:04.881Z,0.98
2019-05-05T15:36:35.475Z,0.75
2019-05-05T15:39:08.960Z,0.60
2019-05-05T15:41:41.714Z,0.57
2019-05-05T15:44:13.299Z,0.80
2019-05-05T15:46:44.202Z,0.78
2019-05-05T15:49:14.924Z,0.80
2019-05-05T15:51:45.301Z,0.60
2019-05-05T15:54:15.716Z,0.82
2019-05-05T15:56:46.031Z,0.20
2019-05-05T15:59:16.331Z,0.93
2019-05-05T16:01:46.635Z,0.60
2019-05-05T16:04:16.923Z,0.72
2019-05-05T16:06:47.238Z,0.57
2019-05-05T16:09:18.973Z,0.95
2019-05-05T16:11:50.791Z,0.57
2019-05-05T16:14:23.716Z,0.57
2019-05-05T16:17:06.092Z,0.68
2019-05-05T16:19:59.860Z,0.42
2019-05-05T16:22:38.545Z,0.33
2019-05-05T16:25:14.035Z,0.80
2019-05-05T16:27:45.487Z,0.55
2019-05-05T16:30:16.635Z,0.60
2019-05-05T16:32:46.951Z,0.68
2019-05-05T16:35:18.913Z,0.50
2019-05-05T16:37:49.227Z,0.33
2019-05-05T16:40:19.739Z,0.65
2019-05-05T16:42:50.022Z,1.30
2019-05-05T16:45:20.528Z,0.35
2019-05-05T16:47:50.883Z,0.68
2019-05-05T16:50:21.339Z,0.28
2019-05-05T16:52:57.823Z,0.30
2019-05-05T16:55:51.115Z,0.37
2019-05-05T16:58:21.450Z,0.37
2019-05-05T17:00:51.743Z,0.20
2019-05-05T17:03:23.975Z,0.20
2019-05-05T17:05:55.608Z,0.60
2019-05-05T17:08:26.383Z,0.30
2019-05-05T17:10:56.722Z,0.20
2019-05-05T17:13:37.192Z,0.30
2019-05-05T17:16:26.507Z,0.40
2019-05-05T17:19:04.384Z,0.20
2019-05-05T17:21:57.359Z,0.30
2019-05-05T17:24:27.986Z,0.30
2019-05-05T17:26:58.394Z,0.40
2019-05-05T17:29:28.672Z,0.20
2019-05-05T17:31:59.010Z,0.40
2019-05-05T17:34:29.309Z,0.50
2019-05-05T17:36:59.660Z,0.30
2019-05-05T17:39:34.412Z,0.60
2019-05-05T17:42:35.096Z,0.55
2019-05-05T17:45:14.239Z,0.65
2019-05-05T17:47:49.128Z,0.57
2019-05-05T17:50:27.310Z,0.60
2019-05-05T17:53:14.966Z,0.50
2019-05-05T17:55:45.311Z,0.68
2019-05-05T17:58:15.621Z,0.42
2019-05-05T18:00:54.751Z,0.68
2019-05-05T18:03:25.046Z,0.50
2019-05-05T18:06:05.791Z,0.65
2019-05-05T18:08:49.344Z,0.50
2019-05-05T18:11:47.403Z,0.50
2019-05-05T18:14:23.928Z,0.60
2019-05-05T18:16:54.406Z,1.00
2019-05-05T18:19:24.859Z,0.30
2019-05-05T18:21:55.170Z,0.75
2019-05-05T18:24:25.469Z,0.50
2019-05-05T18:26:55.796Z,0.70
2019-05-05T18:29:26.391Z,0.60
2019-05-05T18:31:56.667Z,0.25
2019-05-05T18:34:26.971Z,0.33
2019-05-05T18:36:57.280Z,0.50
2019-05-05T18:39:27.661Z,0.75
2019-05-05T18:42:14.000Z,0.40
2019-05-05T18:44:46.248Z,0.62
2019-05-05T18:47:18.789Z,0.55
2019-05-05T18:49:49.228Z,0.72
2019-05-05T18:52:19.659Z,0.47
2019-05-05T18:54:50.009Z,0.70
2019-05-05T18:57:20.253Z,0.20
2019-05-05T18:59:50.598Z,0.93
2019-05-05T19:02:37.914Z,0.70
2019-05-05T19:05:34.448Z,0.37
2019-05-05T19:08:10.144Z,0.70
2019-05-05T19:10:40.441Z,0.93
2019-05-05T19:13:10.873Z,0.55
2019-05-05T19:15:41.231Z,1.10
2019-05-05T19:18:13.892Z,0.78
2019-05-05T19:21:08.467Z,2.25
2019-05-05T19:23:38.909Z,1.00
2019-05-05T19:26:09.254Z,0.70
2019-05-05T19:28:44.327Z,0.80
2019-05-05T19:31:13.982Z,0.70
2019-05-05T19:33:44.368Z,0.88
2019-05-05T19:36:14.642Z,0.70
2019-05-05T19:38:45.003Z,0.85
2019-05-05T19:41:17.723Z,0.82
2019-05-05T19:43:54.777Z,0.80
2019-05-05T19:46:35.021Z,0.40
2019-05-05T19:49:15.229Z,0.70
2019-05-05T19:51:45.834Z,0.88
2019-05-05T19:54:16.130Z,1.05
2019-05-05T19:56:46.487Z,0.65
2019-05-05T19:59:16.779Z,0.60
2019-05-05T20:01:47.118Z,1.07
2019-05-05T20:04:17.414Z,0.72
2019-05-05T20:06:47.676Z,0.40
2019-05-05T20:09:18.279Z,0.60
2019-05-05T20:11:48.646Z,1.70
2019-05-05T20:14:18.993Z,0.98
2019-05-05T20:17:08.371Z,0.85
2019-05-05T20:19:44.532Z,0.53
2019-05-05T20:22:15.058Z,0.62
2019-05-05T20:24:45.341Z,0.93
2019-05-05T20:27:15.946Z,1.10
2019-05-05T20:29:46.272Z,1.75
2019-05-05T20:32:18.619Z,0.60
2019-05-05T20:35:14.871Z,0.85
2019-05-05T20:37:49.369Z,1.22
2019-05-05T20:40:24.330Z,1.20
2019-05-05T20:42:54.396Z,2.20
2019-05-05T20:45:27.567Z,0.98
2019-05-05T20:47:57.832Z,1.90
2019-05-05T20:50:28.121Z,2.50
2019-05-05T20:52:58.426Z,1.47
2019-05-05T20:55:28.704Z,1.95
2019-05-05T20:57:59.048Z,2.25
2019-05-05T21:00:29.397Z,1.47
2019-05-05T21:02:59.675Z,1.67
2019-05-05T21:05:29.990Z,1.55
2019-05-05T21:08:00.303Z,1.90
2019-05-05T21:10:30.610Z,2.00
2019-05-05T21:13:00.875Z,1.77
2019-05-05T21:15:33.762Z,1.95
2019-05-05T21:18:04.958Z,1.37
2019-05-05T21:20:35.511Z,1.52
2019-05-05T21:23:30.646Z,2.08
2019-05-05T21:26:04.783Z,1.57
2019-05-05T21:28:35.119Z,1.62
2019-05-05T21:31:05.513Z,1.77
2019-05-05T21:33:35.809Z,2.35
2019-05-05T21:36:06.069Z,1.60
2019-05-05T21:38:36.352Z,2.08
2019-05-05T21:41:06.691Z,2.00
2019-05-05T21:43:36.976Z,2.35
2019-05-05T21:46:07.220Z,1.65
2019-05-05T21:48:37.578Z,2.85
2019-05-05T21:51:23.971Z,2.17
2019-05-05T21:54:13.970Z,2.42
2019-05-05T21:56:54.409Z,3.40
2019-05-05T21:59:24.707Z,2.80
2019-05-05T22:01:55.121Z,3.65
2019-05-05T22:04:25.472Z,3.72
2019-05-05T22:06:55.767Z,4.85
2019-05-05T22:09:26.037Z,2.72
2019-05-05T22:11:56.474Z,3.27
2019-05-05T22:14:27.137Z,2.70
2019-05-05T22:16:57.414Z,3.42
2019-05-05T22:19:29.501Z,3.27
2019-05-05T22:22:04.203Z,3.50
2019-05-05T22:24:35.785Z,4.28
2019-05-05T22:27:06.504Z,3.42
2019-05-05T22:29:36.827Z,3.67
2019-05-05T22:32:07.103Z,3.52
2019-05-05T22:34:37.395Z,3.20
2019-05-05T22:37:09.681Z,3.67
2019-05-05T22:39:39.813Z,4.62
2019-05-05T22:42:10.103Z,3.40
2019-05-05T22:44:40.407Z,5.15
2019-05-05T22:47:10.707Z,3.98
2019-05-05T22:49:40.990Z,3.80
2019-05-05T22:52:11.297Z,3.22
2019-05-05T22:54:41.570Z,3.50
2019-05-05T22:57:13.891Z,2.90
2019-05-05T22:59:43.969Z,2.75
2019-05-05T23:02:15.912Z,4.12
2019-05-05T23:05:00.898Z,4.28
2019-05-05T23:07:34.790Z,3.58
2019-05-05T23:10:04.952Z,4.03
2019-05-05T23:12:35.241Z,3.72
2019-05-05T23:15:06.614Z,2.85
2019-05-05T23:17:51.486Z,3.98
2019-05-05T23:21:08.649Z,3.08
2019-05-05T23:24:06.875Z,3.00
2019-05-05T23:26:38.968Z,2.80
2019-05-05T23:29:09.448Z,2.80
2019-05-05T23:31:39.747Z,3.75
2019-05-05T23:34:10.037Z,3.17
2019-05-05T23:36:40.287Z,3.37
2019-05-05T23:39:10.663Z,2.47
2019-05-05T23:41:40.955Z,2.95
2019-05-05T23:44:11.276Z,2.70
2019-05-05T23:46:41.579Z,3.17
2019-05-05T23:49:13.807Z,4.10
2019-05-05T23:51:44.163Z,3.12
2019-05-05T23:54:14.582Z,3.62
2019-05-05T23:56:44.937Z,2.98
2019-05-05T23:59:15.224Z,3.83
